Time;durP1;ratioP1;P1;durP2;ratioP2;P2;SDS_P1;SDS_P2;PMS_P1;PMS_P2;Temp;Humidity;BMP_temperature;BMP_pressure;BME280_temperature;BME280_humidity;BME280_pressure;Samples;Min_cycle;Max_cycle;Signal;HPM_P1;HPM_P2
2023/05/08 00:01:29;;;;;;;5.37;3.10;;;;;;;23.91;37.86;100085.59;4260784;33;33319;-64
2023/05/08 00:03:58;;;;;;;3.72;2.33;;;;;;;23.93;37.88;100080.75;4260922;33;33603;-65
2023/05/08 00:06:28;;;;;;;5.90;2.62;;;;;;;23.91;37.84;100083.69;4260998;33;33673;-65
2023/05/08 00:08:56;;;;;;;7.05;2.75;;;;;;;23.90;37.94;100079.31;4260702;33;33549;-64
2023/05/08 00:11:24;;;;;;;4.07;2.65;;;;;;;23.90;37.92;100079.31;4260731;33;33421;-64
2023/05/08 00:13:51;;;;;;;7.20;3.08;;;;;;;23.88;37.99;100078.69;4260392;33;33844;-64
2023/05/08 00:16:19;;;;;;;7.30;2.62;;;;;;;23.89;37.79;100083.09;4260504;33;33948;-63
2023/05/08 00:18:47;;;;;;;4.50;2.58;;;;;;;23.88;37.76;100075.16;4260723;33;34042;-64
2023/05/08 00:21:14;;;;;;;3.83;2.35;;;;;;;23.89;37.68;100084.97;4260689;33;33612;-63
2023/05/08 00:23:42;;;;;;;3.58;2.53;;;;;;;23.89;37.67;100084.97;4260516;33;33725;-64
2023/05/08 00:26:09;;;;;;;5.47;2.40;;;;;;;23.88;37.62;100083.31;4260585;33;34091;-64
2023/05/08 00:28:37;;;;;;;9.90;3.00;;;;;;;23.87;37.46;100085.19;4260590;33;33991;-64
2023/05/08 00:31:05;;;;;;;5.70;2.42;;;;;;;23.87;37.46;100089.81;4253749;33;33030;-64
2023/05/08 00:33:33;;;;;;;5.35;2.10;;;;;;;23.87;37.53;100084.34;4246440;33;34737;-64
2023/05/08 00:36:01;;;;;;;7.03;2.72;;;;;;;23.85;37.52;100078.31;4246423;33;34728;-63
2023/05/08 00:38:30;;;;;;;6.18;3.00;;;;;;;23.85;37.43;100092.75;4245069;33;34604;-63
2023/05/08 00:40:58;;;;;;;6.28;2.90;;;;;;;23.84;37.54;100088.37;4245133;33;34194;-64
2023/05/08 00:43:27;;;;;;;4.45;2.72;;;;;;;23.85;37.56;100094.66;4246257;33;34805;-64
2023/05/08 00:45:55;;;;;;;4.57;2.90;;;;;;;23.85;37.40;100087.31;4246192;33;33790;-64
2023/05/08 00:48:23;;;;;;;4.68;2.90;;;;;;;23.84;37.27;100093.81;4245073;33;33689;-65
2023/05/08 00:50:51;;;;;;;4.47;2.65;;;;;;;23.84;37.25;100095.72;4255392;33;34066;-63
2023/05/08 00:53:19;;;;;;;3.67;2.42;;;;;;;23.83;37.16;100096.78;4260307;33;34830;-65
2023/05/08 00:55:48;;;;;;;4.47;2.60;;;;;;;23.84;37.32;100103.91;4247687;33;34906;-63
2023/05/08 00:58:15;;;;;;;4.62;2.60;;;;;;;23.81;37.33;100091.53;4247581;33;33744;-64
2023/05/08 01:00:43;;;;;;;4.53;2.55;;;;;;;23.82;37.37;100101.37;4235812;33;33308;-63
2023/05/08 01:03:11;;;;;;;5.07;3.00;;;;;;;23.82;37.33;100103.25;4247650;33;33696;-64
2023/05/08 01:05:39;;;;;;;6.47;2.92;;;;;;;23.80;37.22;100098.03;4247613;33;33924;-64
2023/05/08 01:08:06;;;;;;;5.82;3.00;;;;;;;23.81;37.15;100098.88;4247437;33;33883;-63
2023/05/08 01:10:43;;;;;;;5.00;2.45;;;;;;;23.81;37.12;100102.44;4260416;33;33477;-64
2023/05/08 01:13:19;;;;;;;4.10;2.58;;;;;;;23.81;37.12;100101.59;4260132;33;34573;-63
2023/05/08 01:15:50;;;;;;;4.90;3.20;;;;;;;23.79;37.13;100110.00;4248031;33;34031;-64
2023/05/08 01:18:34;;;;;;;4.60;2.80;;;;;;;23.78;37.08;100111.06;4247914;33;34261;-63
2023/05/08 01:21:13;;;;;;;6.70;2.70;;;;;;;23.80;37.00;100113.56;4259110;33;34127;-63
2023/05/08 01:24:11;;;;;;;3.92;2.50;;;;;;;23.77;37.04;100114.84;4260293;33;33987;-64
2023/05/08 01:27:07;;;;;;;8.13;3.13;;;;;;;23.78;36.96;100124.69;4260343;33;33687;-64
2023/05/08 01:29:47;;;;;;;6.00;2.90;;;;;;;23.78;36.94;100118.37;4260285;33;34569;-64
2023/05/08 01:32:40;;;;;;;5.15;2.72;;;;;;;23.74;36.98;100126.19;4260322;33;33214;-64
2023/05/08 01:35:36;;;;;;;4.90;2.75;;;;;;;23.76;36.87;100126.78;4247109;33;33870;-64
2023/05/08 01:38:20;;;;;;;6.93;2.80;;;;;;;23.73;36.80;100129.94;4257629;33;34462;-64
2023/05/08 01:41:02;;;;;;;6.07;2.80;;;;;;;23.75;36.68;100129.75;4260070;33;33802;-64
2023/05/08 01:43:41;;;;;;;5.55;3.15;;;;;;;23.73;36.60;100132.66;4258846;33;33357;-63
2023/05/08 01:46:13;;;;;;;5.62;2.92;;;;;;;23.72;36.59;100138.34;4260170;33;33952;-64
2023/05/08 01:48:56;;;;;;;3.85;2.67;;;;;;;23.71;36.60;100131.25;4247148;33;33995;-63
2023/05/08 01:51:24;;;;;;;4.62;3.03;;;;;;;23.72;36.56;100133.72;4258995;33;33790;-63
2023/05/08 01:53:55;;;;;;;5.03;2.78;;;;;;;23.70;36.70;100135.03;4258761;33;33420;-64
2023/05/08 01:56:23;;;;;;;5.18;2.60;;;;;;;23.68;36.71;100144.22;4247075;33;34710;-64
2023/05/08 01:58:51;;;;;;;7.37;3.10;;;;;;;23.68;36.70;100141.50;4247409;33;33372;-64
2023/05/08 02:01:22;;;;;;;5.77;2.70;;;;;;;23.68;36.69;100144.22;4258876;33;33881;-64
2023/05/08 02:03:50;;;;;;;5.03;2.72;;;;;;;23.69;36.66;100139.63;4259893;33;33313;-64
2023/05/08 02:06:20;;;;;;;4.57;2.90;;;;;;;23.69;36.61;100139.63;4258733;33;33968;-64
2023/05/08 02:08:48;;;;;;;;;;;;;;;23.67;36.71;100148.00;4259034;33;34007;-63
2023/05/08 02:11:17;;;;;;;5.00;3.10;;;;;;;23.77;36.58;100152.13;4259843;33;33729;-63
2023/05/08 02:13:46;;;;;;;4.45;2.75;;;;;;;23.69;36.52;100153.25;4247008;33;32861;-64
2023/05/08 02:16:13;;;;;;;5.57;2.95;;;;;;;23.67;36.59;100155.34;4259871;33;34659;-64
2023/05/08 02:18:43;;;;;;;6.00;3.50;;;;;;;23.66;36.43;100146.34;4258445;33;34661;-64
2023/05/08 02:21:11;;;;;;;8.10;3.22;;;;;;;23.66;36.47;100157.25;4246941;33;34592;-63
2023/05/08 02:23:38;;;;;;;4.87;2.83;;;;;;;23.67;36.27;100158.91;4259760;33;33479;-64
2023/05/08 02:26:06;;;;;;;4.35;2.53;;;;;;;23.66;36.20;100154.53;4258605;33;34675;-65
2023/05/08 02:29:02;;;;;;;4.25;2.65;;;;;;;23.65;36.26;100161.03;4259634;33;34338;-64
2023/05/08 02:31:29;;;;;;;10.80;2.78;;;;;;;23.67;36.17;100149.91;4256205;33;33957;-64
2023/05/08 02:33:57;;;;;;;5.70;3.03;;;;;;;23.64;36.14;100156.66;4244358;33;33729;-66
2023/05/08 02:36:25;;;;;;;8.27;2.60;;;;;;;23.64;36.20;100155.78;4246098;33;34131;-65
2023/05/08 02:38:56;;;;;;;6.18;2.80;;;;;;;23.64;36.19;100158.50;4245464;33;34043;-65
2023/05/08 02:41:24;;;;;;;4.95;2.72;;;;;;;23.63;36.05;100154.91;4248541;33;33887;-65
2023/05/08 02:43:52;;;;;;;5.90;3.15;;;;;;;23.63;35.98;100157.62;4260846;33;34252;-66
2023/05/08 02:46:40;;;;;;;5.18;3.03;;;;;;;23.63;35.94;100160.38;4260019;33;34011;-65
2023/05/08 02:49:14;;;;;;;6.05;3.08;;;;;;;23.64;36.03;100159.37;4259809;33;34837;-66
2023/05/08 02:51:53;;;;;;;6.15;3.00;;;;;;;23.60;36.14;100155.37;4248394;33;33712;-65
2023/05/08 02:54:24;;;;;;;4.93;2.90;;;;;;;23.62;36.12;100158.72;4260030;33;34045;-65
2023/05/08 02:56:56;;;;;;;5.22;2.90;;;;;;;23.60;36.12;100162.72;4260000;33;33879;-66
2023/05/08 02:59:29;;;;;;;5.15;3.00;;;;;;;23.58;36.00;100160.19;4259653;33;34114;-65
2023/05/08 03:02:15;;;;;;;8.20;3.75;;;;;;;23.60;35.93;100155.37;4248322;33;33621;-66
2023/05/08 03:04:50;;;;;;;6.97;3.25;;;;;;;23.62;35.92;100160.59;4260881;33;33324;-66
2023/05/08 03:07:23;;;;;;;4.82;3.08;;;;;;;23.60;35.97;100162.72;4259745;33;33497;-66
2023/05/08 03:09:56;;;;;;;4.90;2.85;;;;;;;23.58;35.83;100160.19;4245695;33;33715;-65
2023/05/08 03:12:25;;;;;;;5.97;3.03;;;;;;;23.58;35.78;100160.19;4222793;33;33709;-66
2023/05/08 03:15:13;;;;;;;5.93;2.90;;;;;;;23.58;35.70;100162.91;4234226;33;34051;-64
2023/05/08 03:17:41;;;;;;;6.03;2.90;;;;;;;23.59;35.81;100167.31;4249479;33;33976;-66
2023/05/08 03:20:11;;;;;;;6.25;3.25;;;;;;;23.56;35.69;100161.47;4259841;33;33595;-67
2023/05/08 03:22:39;;;;;;;6.72;3.40;;;;;;;23.55;35.66;100165.22;4259618;33;33914;-66
2023/05/08 03:25:08;;;;;;;4.53;2.95;;;;;;;23.56;35.57;100161.47;4259864;33;33831;-65
2023/05/08 03:27:36;;;;;;;6.32;3.20;;;;;;;23.56;35.59;100161.47;4259874;33;34411;-65
2023/05/08 03:30:05;;;;;;;6.95;3.55;;;;;;;23.55;35.57;100174.28;4260753;33;33726;-65
2023/05/08 03:32:33;;;;;;;6.68;3.33;;;;;;;23.56;35.52;100166.94;4259982;33;34693;-66
2023/05/08 03:35:02;;;;;;;4.62;3.30;;;;;;;23.55;35.67;100165.22;4248072;33;33597;-65
2023/05/08 03:37:30;;;;;;;4.40;3.05;;;;;;;23.54;35.79;100169.84;4259622;33;33968;-67
2023/05/08 03:39:58;;;;;;;6.57;3.60;;;;;;;23.53;35.89;100168.19;4261157;33;34759;-65
2023/05/08 03:42:25;;;;;;;6.30;3.58;;;;;;;23.53;35.77;100164.62;4259875;33;34367;-65
2023/05/08 03:45:12;;;;;;;7.80;3.80;;;;;;;23.53;35.70;100173.63;4259535;33;33596;-66
2023/05/08 03:47:39;;;;;;;5.00;3.47;;;;;;;23.55;35.67;100176.13;4260266;33;33412;-66
2023/05/08 03:50:09;;;;;;;5.22;3.60;;;;;;;23.52;35.64;100180.13;4259729;33;34745;-67
2023/05/08 03:52:37;;;;;;;5.50;3.62;;;;;;;23.54;35.74;100182.63;4260872;33;33462;-64
2023/05/08 03:55:05;;;;;;;6.50;3.85;;;;;;;23.52;35.80;100176.59;4259598;33;34036;-68
2023/05/08 03:57:43;;;;;;;5.15;3.50;;;;;;;23.51;35.79;100173.03;4260438;33;34577;-67
2023/05/08 04:00:19;;;;;;;5.45;3.30;;;;;;;23.52;35.98;100182.03;4247948;33;33933;-68
2023/05/08 04:02:50;;;;;;;4.78;3.05;;;;;;;23.52;36.14;100185.59;4259163;33;33973;-67
2023/05/08 04:05:36;;;;;;;5.75;2.85;;;;;;;23.50;36.24;100175.94;4259708;33;33930;-67
2023/05/08 04:08:13;;;;;;;8.65;3.33;;;;;;;23.53;36.46;100183.69;4248188;33;34708;-68
2023/05/08 04:10:47;;;;;;;4.47;2.80;;;;;;;23.52;36.68;100188.31;4247830;33;34020;-68
2023/05/08 04:13:18;;;;;;;4.32;2.80;;;;;;;23.52;36.80;100182.87;4247262;33;33880;-67
2023/05/08 04:15:51;;;;;;;5.03;2.92;;;;;;;23.52;36.85;100188.31;4247998;33;33851;-67
2023/05/08 04:18:23;;;;;;;4.82;2.92;;;;;;;23.54;36.91;100188.91;4259792;33;33787;-67
2023/05/08 04:20:50;;;;;;;4.15;2.58;;;;;;;23.53;36.93;100198.16;4248111;33;33892;-68
2023/05/08 04:23:19;;;;;;;4.47;2.72;;;;;;;23.53;36.92;100195.44;4247523;33;34612;-68
2023/05/08 04:25:47;;;;;;;21.40;4.00;;;;;;;23.53;36.95;100198.16;4258902;33;33258;-68
2023/05/08 04:28:15;;;;;;;5.87;3.33;;;;;;;23.54;36.79;100205.25;4259548;33;34087;-68
2023/05/08 04:30:43;;;;;;;9.20;3.55;;;;;;;23.53;36.80;100209.03;4260537;33;34030;-68
2023/05/08 04:33:11;;;;;;;6.62;3.60;;;;;;;23.54;36.85;100207.97;4247259;33;33607;-68
2023/05/08 04:35:38;;;;;;;6.10;3.40;;;;;;;23.55;36.87;100208.81;4247412;33;33060;-68
2023/05/08 04:38:06;;;;;;;9.98;3.42;;;;;;;23.56;36.98;100210.50;4245698;33;33873;-68
2023/05/08 04:40:34;;;;;;;4.80;3.05;;;;;;;23.56;37.13;100205.91;4258617;33;33687;-68
2023/05/08 04:43:01;;;;;;;5.87;3.25;;;;;;;23.56;37.09;100219.50;4258783;33;34167;-68
2023/05/08 04:45:29;;;;;;;5.40;3.10;;;;;;;23.58;37.19;100222.84;4257306;33;34668;-68
2023/05/08 04:47:57;;;;;;;5.57;3.08;;;;;;;23.58;37.18;100228.28;4258396;33;35155;-69
2023/05/08 04:50:24;;;;;;;6.60;3.72;;;;;;;23.59;37.26;100231.84;4258721;33;33514;-68
2023/05/08 04:52:52;;;;;;;7.78;3.40;;;;;;;23.58;37.43;100239.19;4259822;33;34492;-66
2023/05/08 04:55:19;;;;;;;6.60;4.07;;;;;;;23.60;37.55;100244.44;4260374;33;34138;-69
2023/05/08 04:57:47;;;;;;;7.40;3.03;;;;;;;23.59;37.64;100238.13;4260658;33;34685;-68
2023/05/08 05:00:15;;;;;;;7.47;3.30;;;;;;;23.59;37.84;100243.56;4259649;33;33916;-67
2023/05/08 05:02:43;;;;;;;6.82;3.67;;;;;;;23.59;37.80;100245.47;4260449;33;33850;-68
2023/05/08 05:05:11;;;;;;;7.07;3.12;;;;;;;23.59;37.98;100246.31;4260162;33;33356;-68
2023/05/08 05:07:40;;;;;;;4.93;3.30;;;;;;;23.59;38.20;100254.47;4260378;33;34118;-68
2023/05/08 05:10:08;;;;;;;6.60;3.67;;;;;;;23.60;38.20;100247.16;4260387;33;34823;-68
2023/05/08 05:12:36;;;;;;;7.57;3.37;;;;;;;23.59;38.12;100248.19;4260318;33;33777;-68
2023/05/08 05:15:05;;;;;;;4.47;3.03;;;;;;;23.59;38.26;100251.75;4260378;33;33466;-68
2023/05/08 05:17:33;;;;;;;5.32;3.37;;;;;;;23.60;38.34;100252.62;4260456;33;33752;-68
2023/05/08 05:20:01;;;;;;;5.37;3.40;;;;;;;23.60;38.49;100248.00;4260309;33;33223;-68
2023/05/08 05:22:29;;;;;;;5.12;3.12;;;;;;;23.59;38.51;100249.03;4260529;33;33620;-68
2023/05/08 05:24:57;;;;;;;7.35;3.55;;;;;;;23.60;38.55;100249.88;4259687;33;34033;-67
2023/05/08 05:27:25;;;;;;;5.37;3.47;;;;;;;23.60;38.74;100261.63;4260513;33;33924;-66
2023/05/08 05:29:53;;;;;;;4.95;3.22;;;;;;;23.61;38.72;100257.00;4260263;33;34700;-67
2023/05/08 05:32:20;;;;;;;7.60;4.28;;;;;;;23.60;38.73;100258.91;4260129;33;33835;-67
2023/05/08 05:34:48;;;;;;;9.32;3.90;;;;;;;23.60;38.25;100258.06;4259999;33;33026;-66
2023/05/08 05:37:16;;;;;;;7.20;3.67;;;;;;;23.58;38.04;100263.69;4260127;33;33898;-67
2023/05/08 05:39:43;;;;;;;6.03;3.78;;;;;;;23.58;37.84;100249.25;4260273;33;34090;-68
2023/05/08 05:42:11;;;;;;;6.30;4.10;;;;;;;23.58;37.94;100262.88;4260121;33;33743;-67
2023/05/08 05:44:39;;;;;;;8.10;4.43;;;;;;;23.57;37.92;100263.94;4260256;33;33206;-67
2023/05/08 05:47:09;;;;;;;8.02;3.80;;;;;;;23.57;38.03;100266.66;4260203;33;33454;-67
2023/05/08 05:49:38;;;;;;;6.32;3.72;;;;;;;23.56;37.93;100274.00;4260384;33;34497;-67
2023/05/08 05:52:06;;;;;;;5.95;3.83;;;;;;;23.56;38.08;100270.44;4259943;33;34526;-66
2023/05/08 05:54:34;;;;;;;5.65;3.60;;;;;;;23.55;38.17;100269.59;4259860;33;33329;-67
2023/05/08 05:57:02;;;;;;;6.22;3.60;;;;;;;23.55;38.15;100272.31;4260400;33;33832;-67
2023/05/08 05:59:30;;;;;;;8.52;3.80;;;;;;;23.55;38.12;100271.47;4260125;33;34351;-67
2023/05/08 06:01:57;;;;;;;5.03;3.20;;;;;;;23.55;38.10;100274.19;4260296;33;33172;-68
2023/05/08 06:04:25;;;;;;;6.87;3.53;;;;;;;23.55;38.05;100276.91;4259953;33;33157;-68
2023/05/08 06:06:53;;;;;;;6.03;4.20;;;;;;;23.55;38.02;100280.50;4260055;33;34046;-67
2023/05/08 06:09:20;;;;;;;5.40;3.20;;;;;;;23.55;38.02;100274.19;4259948;33;34041;-67
2023/05/08 06:11:50;;;;;;;6.35;3.47;;;;;;;23.54;37.99;100273.34;4259630;33;33331;-66
2023/05/08 06:14:18;;;;;;;7.75;3.55;;;;;;;23.55;37.97;100279.62;4259527;33;33466;-67
2023/05/08 06:16:45;;;;;;;7.70;4.00;;;;;;;23.54;37.96;100267.91;4255504;33;33986;-67
2023/05/08 06:19:15;;;;;;;6.17;3.83;;;;;;;23.53;37.96;100277.13;4257715;33;34758;-67
2023/05/08 06:21:42;;;;;;;5.53;3.70;;;;;;;23.53;37.84;100277.13;4249507;33;33832;-66
2023/05/08 06:24:10;;;;;;;7.28;4.07;;;;;;;23.52;37.85;100274.63;4250418;33;33801;-68
2023/05/08 06:26:38;;;;;;;5.30;3.30;;;;;;;23.52;37.86;100280.91;4259496;33;34783;-68
2023/05/08 06:29:05;;;;;;;4.80;3.00;;;;;;;23.52;37.82;100283.66;4259493;33;34164;-67
2023/05/08 06:31:33;;;;;;;4.90;3.55;;;;;;;23.51;37.79;100279.25;4257227;33;87790;-67
2023/05/08 06:34:01;;;;;;;6.22;3.42;;;;;;;23.52;37.81;100274.63;4259490;33;33246;-68
2023/05/08 06:36:28;;;;;;;5.43;3.22;;;;;;;23.51;37.76;100281.97;4259507;33;33660;-66
2023/05/08 06:38:56;;;;;;;4.82;3.05;;;;;;;23.51;37.60;100276.53;4259409;33;33918;-68
2023/05/08 06:41:24;;;;;;;4.65;3.10;;;;;;;23.50;37.57;100282.16;4259572;33;33810;-68
2023/05/08 06:43:51;;;;;;;4.60;3.33;;;;;;;23.50;37.60;100291.22;4259174;33;33236;-68
2023/05/08 06:46:19;;;;;;;5.25;2.90;;;;;;;23.50;37.59;100291.22;4259540;33;33558;-68
2023/05/08 06:48:47;;;;;;;4.90;3.00;;;;;;;23.49;37.45;100289.50;4259576;33;33905;-68
2023/05/08 06:51:15;;;;;;;5.68;3.33;;;;;;;23.48;37.44;100285.13;4259347;33;35053;-68
2023/05/08 06:53:42;;;;;;;5.95;3.00;;;;;;;23.50;37.51;100288.47;4259196;33;33226;-67
2023/05/08 06:56:10;;;;;;;5.35;3.08;;;;;;;23.49;37.49;100286.78;4259372;33;34698;-68
2023/05/08 06:58:37;;;;;;;4.62;2.80;;;;;;;23.49;37.47;100294.13;4259208;33;33960;-68
2023/05/08 07:01:05;;;;;;;4.43;2.90;;;;;;;23.48;37.21;100292.47;4259312;33;34604;-68
2023/05/08 07:03:33;;;;;;;5.43;2.83;;;;;;;23.48;37.35;100296.00;4259451;33;33528;-67
2023/05/08 07:06:00;;;;;;;4.75;2.85;;;;;;;23.48;37.42;100293.28;4259366;33;33862;-68
2023/05/08 07:08:29;;;;;;;6.57;3.10;;;;;;;23.49;37.40;100294.13;4259296;33;33998;-68
2023/05/08 07:10:56;;;;;;;4.30;2.67;;;;;;;23.48;37.52;100296.00;4259203;33;34086;-69
2023/05/08 07:13:24;;;;;;;3.45;2.17;;;;;;;23.49;37.47;100302.28;4258813;33;33005;-68
2023/05/08 07:15:52;;;;;;;6.03;2.70;;;;;;;23.49;37.57;100296.84;4258269;33;33511;-66
2023/05/08 07:18:19;;;;;;;5.90;2.60;;;;;;;23.49;37.54;100303.12;4253213;33;34015;-66
2023/05/08 07:20:47;;;;;;;5.40;2.85;;;;;;;23.48;37.56;100301.47;4252614;33;34522;-66
2023/05/08 07:23:15;;;;;;;3.85;2.25;;;;;;;23.48;37.59;100304.19;4254576;33;34447;-66
2023/05/08 07:25:43;;;;;;;4.37;2.50;;;;;;;23.49;37.59;100299.56;4260828;33;33758;-66
2023/05/08 07:28:10;;;;;;;3.30;2.20;;;;;;;23.49;37.61;100303.12;4260956;33;33784;-66
2023/05/08 07:30:38;;;;;;;3.97;2.55;;;;;;;23.48;37.59;100300.63;4260915;33;33288;-66
2023/05/08 07:33:05;;;;;;;5.35;2.50;;;;;;;23.47;37.36;100302.53;4260869;33;33357;-66
2023/05/08 07:35:33;;;;;;;3.97;2.45;;;;;;;23.47;37.43;100302.53;4250959;33;34441;-66
2023/05/08 07:38:00;;;;;;;4.32;2.40;;;;;;;23.48;37.40;100298.75;4246736;33;34794;-66
2023/05/08 07:40:28;;;;;;;5.85;2.47;;;;;;;23.49;37.47;100302.28;4246611;33;33863;-66
2023/05/08 07:42:55;;;;;;;3.65;2.37;;;;;;;23.50;37.51;100309.41;4246641;33;34159;-66
2023/05/08 07:45:23;;;;;;;4.32;2.67;;;;;;;23.49;37.53;100303.12;4246688;33;33951;-66
2023/05/08 07:47:52;;;;;;;5.18;2.53;;;;;;;23.50;37.51;100306.69;4246845;33;34688;-66
2023/05/08 07:50:20;;;;;;;3.80;2.25;;;;;;;23.49;37.49;100305.84;4256903;33;34615;-66
2023/05/08 07:52:48;;;;;;;3.90;2.42;;;;;;;23.50;37.46;100304.81;4246696;33;33411;-66
2023/05/08 07:55:17;;;;;;;3.17;2.20;;;;;;;23.50;37.41;100304.81;4256880;33;33877;-66
2023/05/08 07:57:45;;;;;;;3.42;2.10;;;;;;;23.51;37.40;100309.22;4246902;33;34012;-66
2023/05/08 08:00:13;;;;;;;4.07;2.30;;;;;;;23.50;37.36;100310.28;4246708;33;33481;-66
2023/05/08 08:02:41;;;;;;;3.83;2.25;;;;;;;23.51;37.32;100314.66;4246386;33;34287;-66
2023/05/08 08:05:09;;;;;;;3.25;1.98;;;;;;;23.51;37.32;100311.94;4246578;33;33684;-67
2023/05/08 08:07:36;;;;;;;3.60;2.03;;;;;;;23.50;37.27;100309.41;4246756;33;34050;-66
2023/05/08 08:10:04;;;;;;;3.80;2.28;;;;;;;23.51;37.20;100302.94;4246356;33;33783;-66
2023/05/08 08:12:32;;;;;;;3.62;2.17;;;;;;;23.51;37.21;100298.31;4256697;33;33403;-66
2023/05/08 08:15:00;;;;;;;3.03;2.10;;;;;;;23.52;37.18;100299.16;4260561;33;34285;-66
2023/05/08 08:17:27;;;;;;;3.12;2.00;;;;;;;23.52;37.04;100296.44;4260405;33;34027;-66
2023/05/08 08:19:56;;;;;;;5.15;1.65;;;;;;;23.51;35.51;100295.59;4260643;33;33810;-66
2023/05/08 08:22:24;;;;;;;3.65;1.80;;;;;;;23.48;35.53;100296.00;4260733;33;33533;-66
2023/05/08 08:24:53;;;;;;;4.75;1.90;;;;;;;23.48;35.13;100300.63;4256006;33;33390;-66
2023/05/08 08:27:22;;;;;;;3.40;2.03;;;;;;;23.45;35.20;100293.72;4260559;33;34067;-66
2023/05/08 08:29:50;;;;;;;2.62;1.52;;;;;;;23.44;35.36;100297.50;4267125;33;33840;-66
2023/05/08 08:32:25;;;;;;;5.12;1.60;;;;;;;23.44;35.44;100300.22;4260580;33;33673;-66
2023/05/08 08:34:52;;;;;;;2.78;1.60;;;;;;;23.44;35.50;100300.22;4260300;33;34813;-66
2023/05/08 08:37:20;;;;;;;3.35;1.98;;;;;;;23.42;34.81;100288.72;4260493;33;34640;-66
2023/05/08 08:39:47;;;;;;;3.17;1.67;;;;;;;23.39;34.63;100292.69;4260673;33;34488;-66
2023/05/08 08:42:15;;;;;;;3.55;1.83;;;;;;;23.39;34.51;100294.56;4260323;33;33298;-66
2023/05/08 08:44:42;;;;;;;2.85;1.50;;;;;;;23.38;34.44;100290.19;4247712;33;34792;-66
2023/05/08 08:47:13;;;;;;;2.55;1.40;;;;;;;23.37;34.30;100294.81;4247400;33;34902;-66
2023/05/08 08:49:42;;;;;;;2.78;1.60;;;;;;;23.36;33.98;100290.41;4260555;33;34008;-66
2023/05/08 08:52:27;;;;;;;3.25;1.50;;;;;;;23.34;34.10;100289.78;4259133;33;33392;-64
2023/05/08 08:54:54;;;;;;;2.67;1.70;;;;;;;23.37;34.41;100296.69;4259312;33;33766;-64
2023/05/08 08:57:22;;;;;;;6.97;1.55;;;;;;;23.36;34.72;100295.00;4247552;33;34197;-65
2023/05/08 08:59:50;;;;;;;2.62;1.25;;;;;;;23.36;34.89;100292.28;4259360;33;33708;-64
2023/05/08 09:02:18;;;;;;;5.22;1.50;;;;;;;23.35;34.90;100285.16;4259283;33;34177;-64
2023/05/08 09:04:50;;;;;;;2.62;1.50;;;;;;;23.36;34.98;100292.28;4247466;33;34031;-64
2023/05/08 09:07:18;;;;;;;2.90;1.60;;;;;;;23.35;34.88;100299.59;4262380;33;33561;-63
2023/05/08 09:09:45;;;;;;;3.05;1.50;;;;;;;23.36;34.78;100304.03;4259316;33;33668;-64
2023/05/08 09:12:13;;;;;;;3.28;1.50;;;;;;;23.35;35.06;100293.34;4258835;33;33559;-64
2023/05/08 09:14:41;;;;;;;2.70;1.55;;;;;;;23.34;35.13;100292.50;4260411;33;34589;-64
2023/05/08 09:17:09;;;;;;;2.87;1.40;;;;;;;23.35;35.15;100294.16;4247526;33;34222;-64
2023/05/08 09:19:36;;;;;;;3.37;1.40;;;;;;;23.35;35.09;100291.44;4260193;33;34552;-64
2023/05/08 09:22:05;;;;;;;3.08;1.25;;;;;;;23.35;35.02;100290.59;4247456;33;33444;-64
2023/05/08 09:24:56;;;;;;;1.65;1.10;;;;;;;23.36;34.99;100290.41;4260265;33;34010;-64
2023/05/08 09:27:23;;;;;;;;;;;;;;;23.39;34.74;100289.97;4260631;33;33792;-64
2023/05/08 09:30:07;;;;;;;1.98;1.10;;;;;;;23.45;34.78;100291.00;4260314;33;34193;-64
2023/05/08 09:32:36;;;;;;;1.70;1.20;;;;;;;23.37;34.82;100283.91;4248459;33;33344;-64
2023/05/08 09:35:05;;;;;;;2.87;1.30;;;;;;;23.34;34.96;100280.78;4242816;33;33925;-64
2023/05/08 09:37:35;;;;;;;2.53;1.10;;;;;;;23.35;34.86;100285.16;4270467;33;34792;-64
2023/05/08 09:40:13;;;;;;;2.22;1.30;;;;;;;23.36;34.84;100286.81;4247229;33;33893;-64
2023/05/08 09:42:41;;;;;;;3.62;1.37;;;;;;;23.37;34.82;100285.81;4264294;33;33376;-65
2023/05/08 09:45:09;;;;;;;2.53;1.30;;;;;;;23.36;34.80;100284.09;4259648;33;34638;-64
2023/05/08 09:47:38;;;;;;;3.05;1.40;;;;;;;23.35;34.60;100291.44;4259975;33;33468;-64
2023/05/08 09:50:07;;;;;;;2.17;1.33;;;;;;;23.34;34.61;100278.88;4260035;33;33920;-64
2023/05/08 09:52:38;;;;;;;1.12;0.90;;;;;;;23.33;34.84;100279.94;4258833;33;33268;-64
2023/05/08 09:55:07;;;;;;;2.00;1.20;;;;;;;23.33;34.66;100274.50;4259038;33;33385;-64
2023/05/08 09:57:37;;;;;;;1.30;0.95;;;;;;;23.33;34.61;100277.22;4247397;33;34099;-64
2023/05/08 10:00:09;;;;;;;2.80;1.33;;;;;;;23.33;34.62;100279.09;4258901;33;33792;-64
2023/05/08 10:02:40;;;;;;;2.85;1.17;;;;;;;23.33;34.79;100271.78;4259834;33;33297;-64
2023/05/08 10:05:28;;;;;;;1.65;0.93;;;;;;;23.34;34.82;100273.44;4258844;33;33857;-64
2023/05/08 10:07:57;;;;;;;2.00;1.20;;;;;;;23.35;34.64;100264.22;4249755;33;34759;-64
2023/05/08 10:10:29;;;;;;;2.05;0.98;;;;;;;23.34;34.61;100267.16;4245791;33;34756;-64
2023/05/08 10:12:57;;;;;;;2.03;1.10;;;;;;;23.33;34.77;100269.06;4245656;33;33575;-64
2023/05/08 10:15:27;;;;;;;1.02;0.95;;;;;;;23.36;34.74;100262.31;4249264;33;34609;-63
2023/05/08 10:17:58;;;;;;;;;;;;;;;23.35;34.67;100264.22;4259770;33;33513;-64
2023/05/08 10:20:26;;;;;;;1.58;1.10;;;;;;;23.44;34.59;100256.63;4249478;33;34815;-64
2023/05/08 10:22:54;;;;;;;1.60;1.00;;;;;;;23.37;34.64;100258.56;4245499;33;33006;-64
2023/05/08 10:25:21;;;;;;;2.22;1.10;;;;;;;23.35;34.68;100252.47;4246926;33;33751;-64
2023/05/08 10:28:00;;;;;;;3.47;1.00;;;;;;;23.34;34.67;100256.25;4246899;33;34016;-64
2023/05/08 10:30:28;;;;;;;1.45;1.05;;;;;;;23.35;34.56;100250.59;4258496;33;34445;-65
2023/05/08 10:32:57;;;;;;;3.22;0.80;;;;;;;23.34;34.50;100248.09;4246849;33;34106;-64
2023/05/08 10:35:25;;;;;;;1.73;1.10;;;;;;;23.33;34.48;100251.88;4258684;33;34178;-63
2023/05/08 10:37:52;;;;;;;1.58;1.17;;;;;;;23.34;34.36;100250.81;4258587;33;34913;-64
2023/05/08 10:40:20;;;;;;;1.05;0.80;;;;;;;23.34;34.35;100242.66;4258459;33;34486;-64
2023/05/08 10:42:47;;;;;;;1.48;1.02;;;;;;;23.34;34.50;100239.94;4258153;33;32479;-64
2023/05/08 10:45:15;;;;;;;1.85;0.90;;;;;;;23.34;34.63;100234.47;4259617;33;34461;-64
2023/05/08 10:48:01;;;;;;;1.20;0.90;;;;;;;23.34;34.67;100245.38;4259798;33;34035;-64
2023/05/08 10:50:38;;;;;;;1.67;1.00;;;;;;;23.34;34.63;100243.47;4259605;33;33934;-64
2023/05/08 10:53:07;;;;;;;1.77;0.90;;;;;;;23.34;34.61;100237.19;4259327;33;33421;-64
2023/05/08 10:55:37;;;;;;;1.10;0.80;;;;;;;23.35;34.48;100236.16;4258177;33;33970;-64
2023/05/08 10:58:08;;;;;;;1.73;0.80;;;;;;;23.35;34.30;100238.88;4247773;33;33565;-64
2023/05/08 11:00:50;;;;;;;1.42;0.88;;;;;;;23.35;34.43;100227.97;4260052;33;33213;-65
2023/05/08 11:03:18;;;;;;;1.23;0.90;;;;;;;23.36;34.52;100229.66;4261099;33;33429;-65
2023/05/08 11:05:58;;;;;;;;;;;;;;;23.35;34.48;100233.41;4270842;33;34685;-65
2023/05/08 11:08:27;;;;;;;1.17;0.90;;;;;;;23.44;34.33;100234.84;4261061;33;35032;-64
2023/05/08 11:10:57;;;;;;;0.60;0.60;;;;;;;23.37;34.35;100223.16;4261135;33;34300;-63
2023/05/08 11:13:27;;;;;;;;;;;;;;;23.34;34.37;100218.16;4261162;33;33212;-65
2023/05/08 11:15:55;;;;;;;1.75;0.70;;;;;;;23.42;34.17;100221.47;4258514;33;34939;-65
2023/05/08 11:18:26;;;;;;;1.37;0.80;;;;;;;23.36;34.36;100218.75;4260944;33;33697;-65
2023/05/08 11:21:14;;;;;;;1.65;0.88;;;;;;;23.33;34.31;100217.31;4253061;33;33494;-65
2023/05/08 11:23:41;;;;;;;3.33;0.80;;;;;;;23.33;34.31;100219.19;4259527;33;33710;-64
2023/05/08 11:26:12;;;;;;;1.42;0.90;;;;;;;23.33;34.37;100219.19;4259709;33;33474;-66
2023/05/08 11:28:52;;;;;;;1.15;0.80;;;;;;;23.32;34.37;100212.94;4260828;33;34772;-65
2023/05/08 11:31:20;;;;;;;1.73;0.90;;;;;;;23.34;34.26;100218.97;4260969;33;33331;-65
2023/05/08 11:33:47;;;;;;;0.90;0.80;;;;;;;23.33;34.17;100211.03;4260830;33;33253;-65
2023/05/08 11:36:16;;;;;;;0.70;0.70;;;;;;;23.32;34.17;100212.94;4247921;33;34677;-65
2023/05/08 11:38:44;;;;;;;1.85;0.88;;;;;;;23.33;34.16;100205.59;4260891;33;34828;-65
2023/05/08 11:41:21;;;;;;;1.50;0.88;;;;;;;23.33;34.09;100203.69;4247917;33;33826;-65